sensor_id;sensor_type;location;lat;lon;timestamp;temperature;humidity
30889;DHT22;51092;50.874;7.024;2023-01-30T00:00:05;4.20;99.20
30889;DHT22;51092;50.874;7.024;2023-01-30T00:01:14;4.20;99.40
30889;DHT22;51092;50.874;7.024;2023-01-30T00:02:15;4.20;99.60
30889;DHT22;51092;50.874;7.024;2023-01-30T00:03:18;4.20;99.70
30889;DHT22;51092;50.874;7.024;2023-01-30T00:04:19;4.30;99.60
30889;DHT22;51092;50.874;7.024;2023-01-30T00:05:22;4.30;99.20
30889;DHT22;51092;50.874;7.024;2023-01-30T00:06:24;4.30;99.10
30889;DHT22;51092;50.874;7.024;2023-01-30T00:07:26;4.30;99.10
30889;DHT22;51092;50.874;7.024;2023-01-30T00:08:28;4.40;98.90
30889;DHT22;51092;50.874;7.024;2023-01-30T00:09:30;4.40;98.70
30889;DHT22;51092;50.874;7.024;2023-01-30T00:10:32;4.50;98.60
30889;DHT22;51092;50.874;7.024;2023-01-30T00:11:34;4.50;98.30
30889;DHT22;51092;50.874;7.024;2023-01-30T00:12:36;4.50;98.30
30889;DHT22;51092;50.874;7.024;2023-01-30T00:13:39;4.50;98.30
30889;DHT22;51092;50.874;7.024;2023-01-30T00:14:42;4.60;98.10
30889;DHT22;51092;50.874;7.024;2023-01-30T00:15:46;4.50;98.10
30889;DHT22;51092;50.874;7.024;2023-01-30T00:16:47;4.50;98.20
30889;DHT22;51092;50.874;7.024;2023-01-30T00:17:50;4.50;98.10
30889;DHT22;51092;50.874;7.024;2023-01-30T00:18:51;4.50;98.20
30889;DHT22;51092;50.874;7.024;2023-01-30T00:19:54;4.50;98.30
30889;DHT22;51092;50.874;7.024;2023-01-30T00:20:56;4.50;98.50
30889;DHT22;51092;50.874;7.024;2023-01-30T00:21:58;4.60;98.50
30889;DHT22;51092;50.874;7.024;2023-01-30T00:23:00;4.60;98.40
30889;DHT22;51092;50.874;7.024;2023-01-30T00:24:03;4.60;98.30
30889;DHT22;51092;50.874;7.024;2023-01-30T00:25:06;4.60;98.20
30889;DHT22;51092;50.874;7.024;2023-01-30T00:26:08;4.60;98.30
30889;DHT22;51092;50.874;7.024;2023-01-30T00:27:11;4.60;98.30
30889;DHT22;51092;50.874;7.024;2023-01-30T00:28:13;4.70;98.30
30889;DHT22;51092;50.874;7.024;2023-01-30T00:29:15;4.70;97.90
30889;DHT22;51092;50.874;7.024;2023-01-30T00:30:18;4.80;98.10
30889;DHT22;51092;50.874;7.024;2023-01-30T00:31:21;4.80;97.70
30889;DHT22;51092;50.874;7.024;2023-01-30T00:32:22;4.80;97.60
30889;DHT22;51092;50.874;7.024;2023-01-30T00:33:27;4.80;97.90
30889;DHT22;51092;50.874;7.024;2023-01-30T00:34:29;4.80;97.70
30889;DHT22;51092;50.874;7.024;2023-01-30T00:35:31;4.70;97.90
30889;DHT22;51092;50.874;7.024;2023-01-30T00:36:33;4.70;98.00
30889;DHT22;51092;50.874;7.024;2023-01-30T00:37:35;4.70;98.10
30889;DHT22;51092;50.874;7.024;2023-01-30T00:38:37;4.60;98.40
30889;DHT22;51092;50.874;7.024;2023-01-30T00:39:40;4.70;98.40
30889;DHT22;51092;50.874;7.024;2023-01-30T00:40:41;4.80;98.20
30889;DHT22;51092;50.874;7.024;2023-01-30T00:41:44;4.70;98.10
30889;DHT22;51092;50.874;7.024;2023-01-30T00:43:05;4.70;98.00
30889;DHT22;51092;50.874;7.024;2023-01-30T00:44:25;4.80;98.40
30889;DHT22;51092;50.874;7.024;2023-01-30T00:45:46;4.80;98.30
30889;DHT22;51092;50.874;7.024;2023-01-30T00:47:07;4.80;97.90
30889;DHT22;51092;50.874;7.024;2023-01-30T00:48:09;4.80;98.30
30889;DHT22;51092;50.874;7.024;2023-01-30T00:49:11;4.80;98.10
30889;DHT22;51092;50.874;7.024;2023-01-30T00:50:14;4.90;98.00
30889;DHT22;51092;50.874;7.024;2023-01-30T00:51:16;4.80;98.00
30889;DHT22;51092;50.874;7.024;2023-01-30T00:52:18;4.90;98.20
30889;DHT22;51092;50.874;7.024;2023-01-30T00:53:19;4.90;98.00
30889;DHT22;51092;50.874;7.024;2023-01-30T00:54:25;4.90;98.10
30889;DHT22;51092;50.874;7.024;2023-01-30T00:55:26;5.00;97.70
30889;DHT22;51092;50.874;7.024;2023-01-30T00:56:29;5.00;97.90
30889;DHT22;51092;50.874;7.024;2023-01-30T00:57:30;5.00;97.90
30889;DHT22;51092;50.874;7.024;2023-01-30T00:58:33;5.00;97.90
30889;DHT22;51092;50.874;7.024;2023-01-30T00:59:34;4.90;97.80
30889;DHT22;51092;50.874;7.024;2023-01-30T01:00:37;4.90;98.00
30889;DHT22;51092;50.874;7.024;2023-01-30T01:01:40;5.00;98.20
30889;DHT22;51092;50.874;7.024;2023-01-30T01:02:43;4.90;98.10
30889;DHT22;51092;50.874;7.024;2023-01-30T01:03:44;5.00;98.30
30889;DHT22;51092;50.874;7.024;2023-01-30T01:04:47;5.00;98.20
30889;DHT22;51092;50.874;7.024;2023-01-30T01:05:48;5.00;98.10
30889;DHT22;51092;50.874;7.024;2023-01-30T01:06:50;5.00;98.00
30889;DHT22;51092;50.874;7.024;2023-01-30T01:07:52;5.00;98.20
30889;DHT22;51092;50.874;7.024;2023-01-30T01:08:55;5.10;97.80
30889;DHT22;51092;50.874;7.024;2023-01-30T01:09:56;5.10;97.90
30889;DHT22;51092;50.874;7.024;2023-01-30T01:10:59;5.00;97.90
30889;DHT22;51092;50.874;7.024;2023-01-30T01:12:00;5.00;98.20
30889;DHT22;51092;50.874;7.024;2023-01-30T01:13:03;5.10;98.00
30889;DHT22;51092;50.874;7.024;2023-01-30T01:14:07;5.10;98.30
30889;DHT22;51092;50.874;7.024;2023-01-30T01:15:10;5.00;98.70
30889;DHT22;51092;50.874;7.024;2023-01-30T01:16:12;5.00;99.00
30889;DHT22;51092;50.874;7.024;2023-01-30T01:17:16;5.00;99.30
30889;DHT22;51092;50.874;7.024;2023-01-30T01:18:17;5.00;98.70
30889;DHT22;51092;50.874;7.024;2023-01-30T01:19:20;5.00;98.80
30889;DHT22;51092;50.874;7.024;2023-01-30T01:20:22;5.10;99.10
30889;DHT22;51092;50.874;7.024;2023-01-30T01:21:24;5.20;98.50
30889;DHT22;51092;50.874;7.024;2023-01-30T01:22:26;5.20;98.20
30889;DHT22;51092;50.874;7.024;2023-01-30T01:23:28;5.20;98.30
30889;DHT22;51092;50.874;7.024;2023-01-30T01:24:30;5.10;98.80
30889;DHT22;51092;50.874;7.024;2023-01-30T01:25:32;5.20;98.70
30889;DHT22;51092;50.874;7.024;2023-01-30T01:26:34;5.20;98.50
30889;DHT22;51092;50.874;7.024;2023-01-30T01:27:37;5.20;98.50
30889;DHT22;51092;50.874;7.024;2023-01-30T01:28:38;5.30;98.50
30889;DHT22;51092;50.874;7.024;2023-01-30T01:29:40;5.30;98.40
30889;DHT22;51092;50.874;7.024;2023-01-30T01:30:42;5.30;99.40
30889;DHT22;51092;50.874;7.024;2023-01-30T01:31:44;5.30;99.90
30889;DHT22;51092;50.874;7.024;2023-01-30T01:32:48;5.40;99.90
30889;DHT22;51092;50.874;7.024;2023-01-30T01:33:50;5.30;99.80
30889;DHT22;51092;50.874;7.024;2023-01-30T01:34:52;5.20;99.50
30889;DHT22;51092;50.874;7.024;2023-01-30T01:35:54;5.30;99.60
30889;DHT22;51092;50.874;7.024;2023-01-30T01:36:56;5.30;99.30
30889;DHT22;51092;50.874;7.024;2023-01-30T01:37:58;5.40;98.80
30889;DHT22;51092;50.874;7.024;2023-01-30T01:39:00;5.40;98.40
30889;DHT22;51092;50.874;7.024;2023-01-30T01:40:04;5.40;99.50
30889;DHT22;51092;50.874;7.024;2023-01-30T01:41:25;5.40;99.90
30889;DHT22;51092;50.874;7.024;2023-01-30T01:42:34;5.40;99.90
30889;DHT22;51092;50.874;7.024;2023-01-30T01:43:37;5.40;99.90
30889;DHT22;51092;50.874;7.024;2023-01-30T01:45:02;5.50;99.90
30889;DHT22;51092;50.874;7.024;2023-01-30T01:46:08;5.50;99.90
30889;DHT22;51092;50.874;7.024;2023-01-30T01:47:13;5.60;99.90
30889;DHT22;51092;50.874;7.024;2023-01-30T01:48:21;5.60;99.90
30889;DHT22;51092;50.874;7.024;2023-01-30T01:49:26;5.70;99.90
30889;DHT22;51092;50.874;7.024;2023-01-30T01:50:36;5.70;99.90
30889;DHT22;51092;50.874;7.024;2023-01-30T01:51:45;5.70;99.90
30889;DHT22;51092;50.874;7.024;2023-01-30T01:52:50;5.80;99.90
30889;DHT22;51092;50.874;7.024;2023-01-30T01:54:01;5.80;99.90
30889;DHT22;51092;50.874;7.024;2023-01-30T01:55:05;5.90;99.90
30889;DHT22;51092;50.874;7.024;2023-01-30T01:57:19;5.90;99.90
30889;DHT22;51092;50.874;7.024;2023-01-30T01:58:27;5.90;99.90
30889;DHT22;51092;50.874;7.024;2023-01-30T01:59:32;5.90;99.90
30889;DHT22;51092;50.874;7.024;2023-01-30T02:00:36;6.00;99.90
30889;DHT22;51092;50.874;7.024;2023-01-30T02:01:37;6.00;99.90
30889;DHT22;51092;50.874;7.024;2023-01-30T02:02:43;6.00;99.90
30889;DHT22;51092;50.874;7.024;2023-01-30T02:03:51;5.90;99.90
30889;DHT22;51092;50.874;7.024;2023-01-30T02:04:57;5.90;99.90
30889;DHT22;51092;50.874;7.024;2023-01-30T02:06:03;5.90;99.90
30889;DHT22;51092;50.874;7.024;2023-01-30T02:07:07;5.90;99.90
30889;DHT22;51092;50.874;7.024;2023-01-30T02:08:12;5.90;99.90
30889;DHT22;51092;50.874;7.024;2023-01-30T02:09:16;5.90;99.90
30889;DHT22;51092;50.874;7.024;2023-01-30T02:10:20;6.00;99.90
30889;DHT22;51092;50.874;7.024;2023-01-30T02:11:28;5.90;99.90
30889;DHT22;51092;50.874;7.024;2023-01-30T02:12:29;6.00;99.90
30889;DHT22;51092;50.874;7.024;2023-01-30T02:13:32;6.00;99.90
30889;DHT22;51092;50.874;7.024;2023-01-30T02:14:34;6.00;99.90
30889;DHT22;51092;50.874;7.024;2023-01-30T02:15:36;6.00;99.90
30889;DHT22;51092;50.874;7.024;2023-01-30T02:16:38;6.00;99.90
30889;DHT22;51092;50.874;7.024;2023-01-30T02:17:40;6.00;99.90
30889;DHT22;51092;50.874;7.024;2023-01-30T02:18:42;6.00;99.90
30889;DHT22;51092;50.874;7.024;2023-01-30T02:19:52;6.00;99.90
30889;DHT22;51092;50.874;7.024;2023-01-30T02:21:05;6.00;99.90
30889;DHT22;51092;50.874;7.024;2023-01-30T02:22:23;6.00;99.90
30889;DHT22;51092;50.874;7.024;2023-01-30T02:24:01;6.00;99.90
30889;DHT22;51092;50.874;7.024;2023-01-30T02:26:54;6.00;99.90
30889;DHT22;51092;50.874;7.024;2023-01-30T02:28:22;6.00;99.90
30889;DHT22;51092;50.874;7.024;2023-01-30T02:29:46;6.00;99.90
30889;DHT22;51092;50.874;7.024;2023-01-30T02:31:06;6.00;99.90
30889;DHT22;51092;50.874;7.024;2023-01-30T02:32:12;6.00;99.90
30889;DHT22;51092;50.874;7.024;2023-01-30T02:33:19;6.00;99.90
30889;DHT22;51092;50.874;7.024;2023-01-30T02:34:37;6.00;99.90
30889;DHT22;51092;50.874;7.024;2023-01-30T02:35:49;6.00;99.90
30889;DHT22;51092;50.874;7.024;2023-01-30T02:38:27;6.10;99.90
30889;DHT22;51092;50.874;7.024;2023-01-30T02:39:37;6.10;99.90
30889;DHT22;51092;50.874;7.024;2023-01-30T02:40:48;6.10;99.90
30889;DHT22;51092;50.874;7.024;2023-01-30T02:41:58;6.00;99.90
30889;DHT22;51092;50.874;7.024;2023-01-30T02:43:07;6.10;99.90
30889;DHT22;51092;50.874;7.024;2023-01-30T02:44:13;6.10;99.90
30889;DHT22;51092;50.874;7.024;2023-01-30T02:45:23;6.10;99.90
30889;DHT22;51092;50.874;7.024;2023-01-30T02:46:34;6.10;99.90
30889;DHT22;51092;50.874;7.024;2023-01-30T02:47:42;6.00;99.90
30889;DHT22;51092;50.874;7.024;2023-01-30T02:48:47;6.00;99.90
30889;DHT22;51092;50.874;7.024;2023-01-30T02:49:55;6.00;99.90
30889;DHT22;51092;50.874;7.024;2023-01-30T02:51:02;6.10;99.90
30889;DHT22;51092;50.874;7.024;2023-01-30T02:52:07;6.00;99.90
30889;DHT22;51092;50.874;7.024;2023-01-30T02:53:10;6.00;99.90
30889;DHT22;51092;50.874;7.024;2023-01-30T02:54:14;6.00;99.90
30889;DHT22;51092;50.874;7.024;2023-01-30T02:55:20;6.00;99.90
30889;DHT22;51092;50.874;7.024;2023-01-30T02:56:23;6.00;99.90
30889;DHT22;51092;50.874;7.024;2023-01-30T02:57:25;6.00;99.90
30889;DHT22;51092;50.874;7.024;2023-01-30T02:58:30;6.00;99.90
30889;DHT22;51092;50.874;7.024;2023-01-30T02:59:40;6.00;99.90
30889;DHT22;51092;50.874;7.024;2023-01-30T03:02:40;6.00;99.90
30889;DHT22;51092;50.874;7.024;2023-01-30T03:04:01;6.00;99.90
30889;DHT22;51092;50.874;7.024;2023-01-30T03:05:24;5.90;99.90
30889;DHT22;51092;50.874;7.024;2023-01-30T03:06:42;5.90;99.90
30889;DHT22;51092;50.874;7.024;2023-01-30T03:07:53;5.90;99.90
30889;DHT22;51092;50.874;7.024;2023-01-30T03:09:05;5.90;99.90
30889;DHT22;51092;50.874;7.024;2023-01-30T03:10:14;5.90;99.90
30889;DHT22;51092;50.874;7.024;2023-01-30T03:11:18;5.90;99.90
30889;DHT22;51092;50.874;7.024;2023-01-30T03:12:33;5.90;99.90
30889;DHT22;51092;50.874;7.024;2023-01-30T03:13:45;5.90;99.90
30889;DHT22;51092;50.874;7.024;2023-01-30T03:14:53;5.90;99.90
30889;DHT22;51092;50.874;7.024;2023-01-30T03:16:01;5.90;99.90
30889;DHT22;51092;50.874;7.024;2023-01-30T03:17:05;5.90;99.90
30889;DHT22;51092;50.874;7.024;2023-01-30T03:18:10;6.00;99.90
30889;DHT22;51092;50.874;7.024;2023-01-30T03:19:12;6.00;99.90
30889;DHT22;51092;50.874;7.024;2023-01-30T03:20:17;6.00;99.90
30889;DHT22;51092;50.874;7.024;2023-01-30T03:21:20;6.00;99.90
30889;DHT22;51092;50.874;7.024;2023-01-30T03:22:22;6.00;99.90
30889;DHT22;51092;50.874;7.024;2023-01-30T03:23:24;6.10;99.90
30889;DHT22;51092;50.874;7.024;2023-01-30T03:24:26;6.10;99.90
30889;DHT22;51092;50.874;7.024;2023-01-30T03:25:28;6.10;99.90
30889;DHT22;51092;50.874;7.024;2023-01-30T03:26:32;6.20;99.90
30889;DHT22;51092;50.874;7.024;2023-01-30T03:27:35;6.20;99.90
30889;DHT22;51092;50.874;7.024;2023-01-30T03:28:38;6.20;99.90
30889;DHT22;51092;50.874;7.024;2023-01-30T03:29:40;6.20;99.90
30889;DHT22;51092;50.874;7.024;2023-01-30T03:30:42;6.20;99.90
30889;DHT22;51092;50.874;7.024;2023-01-30T03:31:44;6.20;99.90
30889;DHT22;51092;50.874;7.024;2023-01-30T03:32:46;6.20;99.90
30889;DHT22;51092;50.874;7.024;2023-01-30T03:33:49;6.20;99.90
30889;DHT22;51092;50.874;7.024;2023-01-30T03:34:52;6.20;99.90
30889;DHT22;51092;50.874;7.024;2023-01-30T03:35:54;6.20;99.90
30889;DHT22;51092;50.874;7.024;2023-01-30T03:36:56;6.30;99.90
30889;DHT22;51092;50.874;7.024;2023-01-30T03:37:58;6.30;99.90
30889;DHT22;51092;50.874;7.024;2023-01-30T03:39:00;6.30;99.90
30889;DHT22;51092;50.874;7.024;2023-01-30T03:40:03;6.20;99.90
30889;DHT22;51092;50.874;7.024;2023-01-30T03:41:05;6.20;99.90
30889;DHT22;51092;50.874;7.024;2023-01-30T03:42:08;6.20;99.90
30889;DHT22;51092;50.874;7.024;2023-01-30T03:43:10;6.20;99.90
30889;DHT22;51092;50.874;7.024;2023-01-30T03:44:12;6.20;99.90
30889;DHT22;51092;50.874;7.024;2023-01-30T03:45:14;6.30;99.90
30889;DHT22;51092;50.874;7.024;2023-01-30T03:46:16;6.30;99.90
30889;DHT22;51092;50.874;7.024;2023-01-30T03:47:18;6.30;99.90
30889;DHT22;51092;50.874;7.024;2023-01-30T03:48:20;6.30;99.90
30889;DHT22;51092;50.874;7.024;2023-01-30T03:49:24;6.30;99.90
30889;DHT22;51092;50.874;7.024;2023-01-30T03:50:25;6.30;99.90
30889;DHT22;51092;50.874;7.024;2023-01-30T03:51:29;6.30;99.90
30889;DHT22;51092;50.874;7.024;2023-01-30T03:52:33;6.30;99.90
30889;DHT22;51092;50.874;7.024;2023-01-30T03:53:36;6.30;99.90
30889;DHT22;51092;50.874;7.024;2023-01-30T03:54:37;6.40;99.90
30889;DHT22;51092;50.874;7.024;2023-01-30T03:55:39;6.30;99.90
30889;DHT22;51092;50.874;7.024;2023-01-30T03:56:40;6.40;99.90
30889;DHT22;51092;50.874;7.024;2023-01-30T03:57:42;6.40;99.90
30889;DHT22;51092;50.874;7.024;2023-01-30T03:58:43;6.40;99.90
30889;DHT22;51092;50.874;7.024;2023-01-30T03:59:46;6.40;99.90
30889;DHT22;51092;50.874;7.024;2023-01-30T04:00:47;6.30;99.90
30889;DHT22;51092;50.874;7.024;2023-01-30T04:01:50;6.40;99.90
30889;DHT22;51092;50.874;7.024;2023-01-30T04:02:51;6.30;99.90
30889;DHT22;51092;50.874;7.024;2023-01-30T04:03:55;6.30;99.90
30889;DHT22;51092;50.874;7.024;2023-01-30T04:04:57;6.40;99.90
30889;DHT22;51092;50.874;7.024;2023-01-30T04:06:00;6.40;99.90
30889;DHT22;51092;50.874;7.024;2023-01-30T04:07:02;6.40;99.90
30889;DHT22;51092;50.874;7.024;2023-01-30T04:08:04;6.40;99.90
30889;DHT22;51092;50.874;7.024;2023-01-30T04:09:06;6.40;99.90
30889;DHT22;51092;50.874;7.024;2023-01-30T04:10:09;6.40;99.90
30889;DHT22;51092;50.874;7.024;2023-01-30T04:11:11;6.40;99.90
30889;DHT22;51092;50.874;7.024;2023-01-30T04:12:14;6.40;99.90
30889;DHT22;51092;50.874;7.024;2023-01-30T04:13:15;6.40;99.90
30889;DHT22;51092;50.874;7.024;2023-01-30T04:14:18;6.40;99.90
30889;DHT22;51092;50.874;7.024;2023-01-30T04:15:19;6.40;99.90
30889;DHT22;51092;50.874;7.024;2023-01-30T04:16:24;6.40;99.90
30889;DHT22;51092;50.874;7.024;2023-01-30T04:17:26;6.40;99.90
30889;DHT22;51092;50.874;7.024;2023-01-30T04:18:28;6.40;99.90
30889;DHT22;51092;50.874;7.024;2023-01-30T04:19:30;6.40;99.90
30889;DHT22;51092;50.874;7.024;2023-01-30T04:20:34;6.50;99.90
30889;DHT22;51092;50.874;7.024;2023-01-30T04:21:35;6.50;99.90
30889;DHT22;51092;50.874;7.024;2023-01-30T04:22:38;6.50;99.90
30889;DHT22;51092;50.874;7.024;2023-01-30T04:23:40;6.40;99.90
30889;DHT22;51092;50.874;7.024;2023-01-30T04:24:43;6.50;99.90
30889;DHT22;51092;50.874;7.024;2023-01-30T04:25:45;6.40;99.90
30889;DHT22;51092;50.874;7.024;2023-01-30T04:26:48;6.50;99.90
30889;DHT22;51092;50.874;7.024;2023-01-30T04:27:50;6.50;99.90
30889;DHT22;51092;50.874;7.024;2023-01-30T04:28:51;6.50;99.90
30889;DHT22;51092;50.874;7.024;2023-01-30T04:29:53;6.50;99.90
30889;DHT22;51092;50.874;7.024;2023-01-30T04:30:54;6.50;99.90
30889;DHT22;51092;50.874;7.024;2023-01-30T04:31:57;6.50;99.90
30889;DHT22;51092;50.874;7.024;2023-01-30T04:32:58;6.50;99.90
30889;DHT22;51092;50.874;7.024;2023-01-30T04:34:01;6.50;99.90
30889;DHT22;51092;50.874;7.024;2023-01-30T04:35:03;6.60;99.90
30889;DHT22;51092;50.874;7.024;2023-01-30T04:36:08;6.50;99.90
30889;DHT22;51092;50.874;7.024;2023-01-30T04:37:10;6.50;99.90
30889;DHT22;51092;50.874;7.024;2023-01-30T04:38:13;6.50;99.90
30889;DHT22;51092;50.874;7.024;2023-01-30T04:39:14;6.50;99.90
30889;DHT22;51092;50.874;7.024;2023-01-30T04:40:17;6.50;99.90
30889;DHT22;51092;50.874;7.024;2023-01-30T04:41:19;6.60;99.90
30889;DHT22;51092;50.874;7.024;2023-01-30T04:42:21;6.50;99.90
30889;DHT22;51092;50.874;7.024;2023-01-30T04:43:24;6.50;99.90
30889;DHT22;51092;50.874;7.024;2023-01-30T04:44:26;6.50;99.90
30889;DHT22;51092;50.874;7.024;2023-01-30T04:45:28;6.50;99.90
30889;DHT22;51092;50.874;7.024;2023-01-30T04:46:30;6.50;99.90
30889;DHT22;51092;50.874;7.024;2023-01-30T04:47:32;6.60;99.90
30889;DHT22;51092;50.874;7.024;2023-01-30T04:48:34;6.60;99.90
30889;DHT22;51092;50.874;7.024;2023-01-30T04:49:36;6.60;99.90
30889;DHT22;51092;50.874;7.024;2023-01-30T04:50:39;6.60;99.90
30889;DHT22;51092;50.874;7.024;2023-01-30T04:51:42;6.60;99.90
30889;DHT22;51092;50.874;7.024;2023-01-30T04:52:44;6.60;99.90
30889;DHT22;51092;50.874;7.024;2023-01-30T04:53:46;6.60;99.90
30889;DHT22;51092;50.874;7.024;2023-01-30T04:54:48;6.60;99.90
30889;DHT22;51092;50.874;7.024;2023-01-30T04:55:50;6.60;99.90
30889;DHT22;51092;50.874;7.024;2023-01-30T04:56:52;6.60;99.90
30889;DHT22;51092;50.874;7.024;2023-01-30T04:57:54;6.60;99.90
30889;DHT22;51092;50.874;7.024;2023-01-30T04:58:58;6.60;99.90
30889;DHT22;51092;50.874;7.024;2023-01-30T05:00:00;6.60;99.90
30889;DHT22;51092;50.874;7.024;2023-01-30T05:01:18;6.60;99.90
30889;DHT22;51092;50.874;7.024;2023-01-30T05:02:22;6.60;99.90
30889;DHT22;51092;50.874;7.024;2023-01-30T05:03:23;6.60;99.90
30889;DHT22;51092;50.874;7.024;2023-01-30T05:04:26;6.60;99.90
30889;DHT22;51092;50.874;7.024;2023-01-30T05:05:27;6.60;99.90
30889;DHT22;51092;50.874;7.024;2023-01-30T05:06:30;6.60;99.90
30889;DHT22;51092;50.874;7.024;2023-01-30T05:07:34;6.60;99.90
30889;DHT22;51092;50.874;7.024;2023-01-30T05:08:37;6.60;99.90
30889;DHT22;51092;50.874;7.024;2023-01-30T05:09:38;6.60;99.90
30889;DHT22;51092;50.874;7.024;2023-01-30T05:10:44;6.60;99.90
30889;DHT22;51092;50.874;7.024;2023-01-30T05:11:45;6.60;99.90
30889;DHT22;51092;50.874;7.024;2023-01-30T05:12:48;6.60;99.90
30889;DHT22;51092;50.874;7.024;2023-01-30T05:13:50;6.60;99.90
30889;DHT22;51092;50.874;7.024;2023-01-30T05:14:52;6.50;99.90
30889;DHT22;51092;50.874;7.024;2023-01-30T05:15:54;6.50;99.90
30889;DHT22;51092;50.874;7.024;2023-01-30T05:16:56;6.50;99.90
30889;DHT22;51092;50.874;7.024;2023-01-30T05:17:58;6.50;99.90
30889;DHT22;51092;50.874;7.024;2023-01-30T05:19:01;6.50;99.90
30889;DHT22;51092;50.874;7.024;2023-01-30T05:20:04;6.50;99.90
30889;DHT22;51092;50.874;7.024;2023-01-30T05:21:10;6.50;99.90
30889;DHT22;51092;50.874;7.024;2023-01-30T05:22:11;6.50;99.90
30889;DHT22;51092;50.874;7.024;2023-01-30T05:23:15;6.50;99.90
30889;DHT22;51092;50.874;7.024;2023-01-30T05:24:17;6.40;99.90
30889;DHT22;51092;50.874;7.024;2023-01-30T05:25:20;6.40;99.90
30889;DHT22;51092;50.874;7.024;2023-01-30T05:26:21;6.40;99.90
30889;DHT22;51092;50.874;7.024;2023-01-30T05:27:26;6.40;99.90
30889;DHT22;51092;50.874;7.024;2023-01-30T05:28:28;6.30;99.90
30889;DHT22;51092;50.874;7.024;2023-01-30T05:29:30;6.30;99.90
30889;DHT22;51092;50.874;7.024;2023-01-30T05:30:33;6.30;99.90
30889;DHT22;51092;50.874;7.024;2023-01-30T05:31:34;6.30;99.90
30889;DHT22;51092;50.874;7.024;2023-01-30T05:32:36;6.30;99.90
30889;DHT22;51092;50.874;7.024;2023-01-30T05:33:37;6.30;99.90
30889;DHT22;51092;50.874;7.024;2023-01-30T05:34:39;6.20;99.90
30889;DHT22;51092;50.874;7.024;2023-01-30T05:35:45;6.20;99.90
30889;DHT22;51092;50.874;7.024;2023-01-30T05:36:47;6.20;99.90
30889;DHT22;51092;50.874;7.024;2023-01-30T05:37:50;6.20;99.90
30889;DHT22;51092;50.874;7.024;2023-01-30T05:38:53;6.20;99.90
30889;DHT22;51092;50.874;7.024;2023-01-30T05:39:55;6.20;99.90
30889;DHT22;51092;50.874;7.024;2023-01-30T05:40:57;6.10;99.90
30889;DHT22;51092;50.874;7.024;2023-01-30T05:42:01;6.10;99.90
30889;DHT22;51092;50.874;7.024;2023-01-30T05:43:03;6.10;99.90
30889;DHT22;51092;50.874;7.024;2023-01-30T05:44:05;6.00;99.90
30889;DHT22;51092;50.874;7.024;2023-01-30T05:45:08;6.00;99.90
30889;DHT22;51092;50.874;7.024;2023-01-30T05:46:11;6.10;99.90
30889;DHT22;51092;50.874;7.024;2023-01-30T05:47:14;6.00;99.90
30889;DHT22;51092;50.874;7.024;2023-01-30T05:48:15;6.00;99.90
30889;DHT22;51092;50.874;7.024;2023-01-30T05:49:18;6.00;99.90
30889;DHT22;51092;50.874;7.024;2023-01-30T05:50:20;6.00;99.90
30889;DHT22;51092;50.874;7.024;2023-01-30T05:51:24;6.00;99.90
30889;DHT22;51092;50.874;7.024;2023-01-30T05:52:25;6.00;99.90
30889;DHT22;51092;50.874;7.024;2023-01-30T05:53:30;6.00;99.90
30889;DHT22;51092;50.874;7.024;2023-01-30T05:54:33;6.00;99.90
30889;DHT22;51092;50.874;7.024;2023-01-30T05:55:36;6.00;99.90
30889;DHT22;51092;50.874;7.024;2023-01-30T05:56:38;5.90;99.90
30889;DHT22;51092;50.874;7.024;2023-01-30T05:57:40;5.90;99.90
30889;DHT22;51092;50.874;7.024;2023-01-30T05:58:42;5.90;99.90
30889;DHT22;51092;50.874;7.024;2023-01-30T05:59:45;5.90;99.90
30889;DHT22;51092;50.874;7.024;2023-01-30T06:00:46;5.90;99.90
30889;DHT22;51092;50.874;7.024;2023-01-30T06:01:49;5.90;99.90
30889;DHT22;51092;50.874;7.024;2023-01-30T06:02:50;5.90;99.90
30889;DHT22;51092;50.874;7.024;2023-01-30T06:03:53;5.90;99.90
30889;DHT22;51092;50.874;7.024;2023-01-30T06:04:55;5.90;99.90
30889;DHT22;51092;50.874;7.024;2023-01-30T06:05:57;5.90;99.90
30889;DHT22;51092;50.874;7.024;2023-01-30T06:07:00;5.90;99.90
30889;DHT22;51092;50.874;7.024;2023-01-30T06:08:02;5.90;99.90
30889;DHT22;51092;50.874;7.024;2023-01-30T06:09:04;5.90;99.90
30889;DHT22;51092;50.874;7.024;2023-01-30T06:10:09;5.90;99.90
30889;DHT22;51092;50.874;7.024;2023-01-30T06:11:12;6.00;99.90
30889;DHT22;51092;50.874;7.024;2023-01-30T06:12:15;6.00;99.90
30889;DHT22;51092;50.874;7.024;2023-01-30T06:13:16;6.00;99.90
30889;DHT22;51092;50.874;7.024;2023-01-30T06:14:19;6.00;99.90
30889;DHT22;51092;50.874;7.024;2023-01-30T06:15:21;6.00;99.90
30889;DHT22;51092;50.874;7.024;2023-01-30T06:16:23;6.00;99.90
30889;DHT22;51092;50.874;7.024;2023-01-30T06:17:25;6.00;99.90
30889;DHT22;51092;50.874;7.024;2023-01-30T06:18:27;6.00;99.90
30889;DHT22;51092;50.874;7.024;2023-01-30T06:19:29;6.00;99.90
30889;DHT22;51092;50.874;7.024;2023-01-30T06:20:32;6.00;99.90
30889;DHT22;51092;50.874;7.024;2023-01-30T06:21:33;6.00;99.90
30889;DHT22;51092;50.874;7.024;2023-01-30T06:22:36;6.00;99.90
30889;DHT22;51092;50.874;7.024;2023-01-30T06:23:38;6.00;99.90
30889;DHT22;51092;50.874;7.024;2023-01-30T06:24:40;6.10;99.90
30889;DHT22;51092;50.874;7.024;2023-01-30T06:25:43;6.10;99.90
30889;DHT22;51092;50.874;7.024;2023-01-30T06:26:46;6.10;99.90
30889;DHT22;51092;50.874;7.024;2023-01-30T06:27:47;6.10;99.90
30889;DHT22;51092;50.874;7.024;2023-01-30T06:28:49;6.10;99.90
30889;DHT22;51092;50.874;7.024;2023-01-30T06:29:50;6.10;99.90
30889;DHT22;51092;50.874;7.024;2023-01-30T06:30:53;6.10;99.90
30889;DHT22;51092;50.874;7.024;2023-01-30T06:31:55;6.20;99.90
30889;DHT22;51092;50.874;7.024;2023-01-30T06:32:57;6.10;99.90
30889;DHT22;51092;50.874;7.024;2023-01-30T06:33:59;6.20;99.90
30889;DHT22;51092;50.874;7.024;2023-01-30T06:35:01;6.10;99.90
30889;DHT22;51092;50.874;7.024;2023-01-30T06:36:04;6.20;99.90
30889;DHT22;51092;50.874;7.024;2023-01-30T06:37:06;6.20;99.90
30889;DHT22;51092;50.874;7.024;2023-01-30T06:38:08;6.20;99.90
30889;DHT22;51092;50.874;7.024;2023-01-30T06:39:11;6.20;99.90
30889;DHT22;51092;50.874;7.024;2023-01-30T06:40:14;6.20;99.90
30889;DHT22;51092;50.874;7.024;2023-01-30T06:41:17;6.20;99.90
30889;DHT22;51092;50.874;7.024;2023-01-30T06:42:19;6.20;99.90
30889;DHT22;51092;50.874;7.024;2023-01-30T06:43:21;6.20;99.90
30889;DHT22;51092;50.874;7.024;2023-01-30T06:44:23;6.20;99.90
30889;DHT22;51092;50.874;7.024;2023-01-30T06:45:25;6.20;99.90
30889;DHT22;51092;50.874;7.024;2023-01-30T06:46:27;6.20;99.90
30889;DHT22;51092;50.874;7.024;2023-01-30T06:47:30;6.30;99.90
30889;DHT22;51092;50.874;7.024;2023-01-30T06:48:32;6.20;99.90
30889;DHT22;51092;50.874;7.024;2023-01-30T06:49:35;6.20;99.90
30889;DHT22;51092;50.874;7.024;2023-01-30T06:50:36;6.20;99.90
30889;DHT22;51092;50.874;7.024;2023-01-30T06:51:39;6.20;99.90
30889;DHT22;51092;50.874;7.024;2023-01-30T06:52:41;6.20;99.90
30889;DHT22;51092;50.874;7.024;2023-01-30T06:53:43;6.20;99.90
30889;DHT22;51092;50.874;7.024;2023-01-30T06:54:45;6.20;99.90
30889;DHT22;51092;50.874;7.024;2023-01-30T06:55:47;6.20;99.90